Anchorage, AK

11:46 PM AKDT ar Medi 03, 2015 (GMT -0800)
Merrill | | Change Station
CLOSE
Current Station
Airport
Location: Anchorage Merrill,
Elevation: 135 ft
Nearby Weather Stations

Elev 135 ft 61.22 °N, 149.85 °W | Updated 53 minutes ago

Light Rain
Glaw Ysgafn
51 °F
Feels Like 51 °F
N
0
Gwynt Cyfnewidiol Gwynt from Gogledd

Heddiw
High -- | Low -- °F
--% Chance of Precip.
Yesterday
High -- | Low -- °F
Precip. -- mod
6:56 AM 8:59 PM
Waning Gibbous, 62% visible
Gwasgedd 29.84 mod
Gwelededd 10.0 Milltiroedd
Clouds Few 500 ft
Cymylog Yn Bennaf 4500 ft
Cymylog 6000 ft
Gwlithbwynt 47 °F
Lleithder 86%
Rainfall 0.18 mod
Snow Depth Not available.
UV 0 out of 12
Pollen Not available.
Air Quality Not available.
Flu Activity Not available.
METAR PAMR 040653Z 00000KT 10SM -RA FEW005 BKN045 OVC060 11/08 A2984 RMK AO2 SLP105 P0002 T01060083
Gwasgedd 29.84 mod
Gwelededd 10.0 Milltiroedd
Clouds Few 500 ft
Cymylog Yn Bennaf 4500 ft
Cymylog 6000 ft
Gwlithbwynt 47 °F
Lleithder 86%
Rainfall 0.18 mod
Snow Depth Not available.
UV 0 out of 12
Pollen Not available.
Air Quality Not available.
Flu Activity Not available.
METAR PAMR 040653Z 00000KT 10SM -RA FEW005 BKN045 OVC060 11/08 A2984 RMK AO2 SLP105 P0002 T01060083

10-Day Weather Forecast

×

Almanac

Astronomy

Sep. 03, 2015 Rise Set
Actual Time
Civil Twilight
Nautical Twilight
Astronomical Twilight
Moon
Length Of Visible Light
Length of Day
Tomorrow will be .
, % of the Moon is Illuminated

Today's Extremes

State Highs State Lows

Community

WunderPhotos

Upload Photos

1,852,132 photos uploaded!

WunderBlogs® & News

Nearby

Air Quality

  Air Quality AQ Index Pollutant
Not available.

Snow Depth

Station Depth Elevation

Earthquake Activity

City Distance Mag. Time & Date
Minimum magnitude displayed is 2.5.

Coastal Water Temperatures

Lle Tymheredd

Stations

Nearby Weather Stations

Station Location Temp Oerfel Gwynt Gwlithbwynt Lleithder Gwynt Precip. Elev Diweddarwyd Type